Accueil
METAR-TAF:

METAR-TAF

Aéroports :

Aéroport de Reus

Reus, Espagne

latitude: 41-09N, longitude: 001-10E, altitude: 71 m

Observation

Le bulletin a été fait il y a 26 minutes, à 14:30 UTC
Vent 10 kt de ouest/sud-ouest
Température 14°C
Humidité 47%
Pression 1019 hPa
Visibilité 10 km ou plus
pas de nuages en-dessous de 1500 mètres et pas de cumulonimbus.

METAR: LERS 271430Z 24010KT CAVOK 14/03 Q1019

Heure: 15:56 (14:56 UTC)

Prévision

Le bulletin a été fait il y a 56 minutes, à 14:00 UTC
Prévision valable du 27 à 15 UTC au 28 à 15 UTC
Vent 10 kt de ouest/sud-ouest
Visibilité 10 km ou plus
Quelques nuages à une hauteur de 3000 ft
Evoluant progressivement
du 28 à 04 UTC au 28 à 06 UTC
Vent 15 kt de ouest/nord-ouest

TAF: LERS 271400Z 2715/2815 25010KT 9999 FEW030 TX18/2812Z TN06/2806Z BECMG 2804/2806 30015KT

Observations et prévisions météorologiques de plus de 4000 aéroports (messages METAR et TAF).

Les stations disponibles sont représentées par des disques jaunes et rouges sur la carte.

Passer la souris dessus pour voir le nom de la station.

Cliquer dessus pour voir les observations et prévisions météorologiques.

Pour changer de carte: cliquez sur les boutons verts avec une croix noire pour zoomer, sur le bouton vert avec un tiret pour effectuer un zoom arrière, ou sur les flèches vertes pour les cartes adjacentes.


METAR-TAF: